Time;durP1;ratioP1;P1;durP2;ratioP2;P2;SDS_P1;SDS_P2;PMS_P1;PMS_P2;Temp;Humidity;BMP_temperature;BMP_pressure;BME280_temperature;BME280_humidity;BME280_pressure;Samples;Min_cycle;Max_cycle;Signal;HPM_P1;HPM_P2
2022/11/15 00:04:45;;;;;;;79.20;48.83;;;;;;;4.74;100.00;99946.47;10446926;28;20045;-70
2022/11/15 00:10:06;;;;;;;76.07;49.10;;;;;;;4.92;100.00;99946.31;10463998;28;20144;-71
2022/11/15 00:15:26;;;;;;;77.90;49.25;;;;;;;4.82;100.00;99939.44;10463522;28;20414;-71
2022/11/15 00:20:46;;;;;;;79.22;50.30;;;;;;;4.84;100.00;99937.69;10462825;28;20056;-71
2022/11/15 00:26:16;;;;;;;88.97;55.35;;;;;;;4.77;100.00;99926.47;10461703;28;20049;-72
2022/11/15 00:31:36;;;;;;;82.95;53.42;;;;;;;4.92;100.00;99922.00;10486910;22;20048;-68
2022/11/15 00:36:56;;;;;;;84.65;53.72;;;;;;;4.93;100.00;99924.56;10500790;28;20053;-69
2022/11/15 00:42:16;;;;;;;93.78;57.08;;;;;;;5.31;100.00;99925.88;10500153;28;20044;-69
2022/11/15 00:47:37;;;;;;;94.78;60.15;;;;;;;5.59;100.00;99926.41;10500950;28;20037;-69
2022/11/15 00:52:57;;;;;;;90.70;56.65;;;;;;;5.62;100.00;99918.50;10501764;28;20056;-68
2022/11/15 00:58:18;;;;;;;87.43;56.50;;;;;;;5.42;100.00;99910.97;10499509;28;20044;-69
2022/11/15 01:03:39;;;;;;;79.32;52.55;;;;;;;5.02;100.00;99918.41;10498933;28;20045;-69
2022/11/15 01:08:59;;;;;;;92.18;56.05;;;;;;;4.83;100.00;99915.13;10500269;28;20421;-69
2022/11/15 01:14:19;;;;;;;74.22;49.90;;;;;;;5.15;100.00;99906.97;10498020;28;20045;-69
2022/11/15 01:19:44;;;;;;;75.25;49.00;;;;;;;4.69;100.00;99898.78;10484172;28;20048;-69
2022/11/15 01:25:05;;;;;;;68.70;47.08;;;;;;;4.33;100.00;99903.44;10497849;28;20044;-69
2022/11/15 01:30:25;;;;;;;77.40;47.78;;;;;;;4.15;100.00;99899.25;10498849;28;20441;-69
2022/11/15 01:35:45;;;;;;;66.93;45.35;;;;;;;4.41;100.00;99893.84;10498859;28;20408;-69
2022/11/15 01:41:05;;;;;;;64.55;43.17;;;;;;;4.23;100.00;99894.84;10497606;28;20074;-69
2022/11/15 01:46:33;;;;;;;64.90;42.97;;;;;;;4.08;100.00;99886.31;10498056;28;20044;-69
2022/11/15 01:51:54;;;;;;;67.05;43.78;;;;;;;4.10;100.00;99871.56;10498672;28;20425;-69
2022/11/15 01:57:14;;;;;;;67.97;43.63;;;;;;;3.79;100.00;99857.03;10498050;28;20037;-70
2022/11/15 02:02:36;;;;;;;83.80;49.90;;;;;;;3.80;100.00;99856.16;10497898;28;20052;-70
2022/11/15 02:07:57;;;;;;;77.25;48.40;;;;;;;3.87;100.00;99859.59;10497107;28;20053;-69
2022/11/15 02:13:17;;;;;;;89.03;52.33;;;;;;;3.99;100.00;99859.50;10482858;28;20136;-70
2022/11/15 02:18:46;;;;;;;89.38;53.15;;;;;;;4.04;100.00;99855.13;10497520;28;20048;-69
2022/11/15 02:24:25;;;;;;;103.03;60.00;;;;;;;4.31;100.00;99853.16;10496832;28;20485;-68
2022/11/15 02:30:02;;;;;;;103.07;56.95;;;;;;;4.30;100.00;99852.31;10503056;28;20090;-69
2022/11/15 02:35:37;;;;;;;;;;;;;;;4.37;100.00;99840.09;10507371;28;20037;-68
2022/11/15 02:41:02;;;;;;;108.75;57.70;;;;;;;4.22;100.00;99835.91;10504129;28;19920;-68
2022/11/15 02:52:15;;;;;;;114.43;60.30;;;;;;;4.47;100.00;99822.63;10504627;28;20052;-69
2022/11/15 02:57:44;;;;;;;110.13;59.58;;;;;;;4.69;100.00;99820.66;10506059;28;20506;-68
2022/11/15 03:03:10;;;;;;;109.78;60.38;;;;;;;4.69;100.00;99818.06;10504648;28;20409;-68
2022/11/15 03:08:53;;;;;;;122.95;63.63;;;;;;;4.60;100.00;99808.59;10502917;28;20037;-69
2022/11/15 03:14:22;;;;;;;124.65;64.70;;;;;;;4.52;100.00;99803.50;10503596;28;20453;-67
2022/11/15 03:20:01;;;;;;;136.90;67.28;;;;;;;4.89;100.00;99800.47;10503802;28;20052;-68
2022/11/15 03:25:25;;;;;;;125.90;64.13;;;;;;;4.82;100.00;99798.81;10503039;28;20526;-68
2022/11/15 03:30:49;;;;;;;114.57;61.28;;;;;;;4.70;100.00;99793.78;10502651;28;20044;-70
2022/11/15 03:36:09;;;;;;;119.32;62.95;;;;;;;4.85;100.00;99796.16;10487924;28;20048;-70
2022/11/15 03:41:56;;;;;;;117.13;58.80;;;;;;;4.70;100.00;99792.03;10504764;28;20498;-74
2022/11/15 03:47:22;;;;;;;115.15;59.63;;;;;;;4.73;100.00;99788.50;10493810;28;20130;-74
2022/11/15 03:52:45;;;;;;;117.47;59.90;;;;;;;4.85;100.00;99787.50;10508241;28;20048;-74
2022/11/15 03:58:06;;;;;;;116.15;59.45;;;;;;;4.90;100.00;99780.50;10493573;28;20060;-74
2022/11/15 04:03:26;;;;;;;112.10;58.28;;;;;;;4.76;100.00;99783.25;10495611;28;20453;-74
2022/11/15 04:08:47;;;;;;;110.00;56.33;;;;;;;4.75;100.00;99776.34;10508692;28;20044;-74
2022/11/15 04:14:07;;;;;;;103.55;55.45;;;;;;;4.85;100.00;99771.88;10508557;28;20052;-74
2022/11/15 04:25:08;;;;;;;105.97;54.80;;;;;;;4.88;100.00;99779.66;10493437;28;20049;-74
2022/11/15 04:30:28;;;;;;;102.93;53.90;;;;;;;4.88;100.00;99771.84;10508089;28;20509;-73
2022/11/15 04:41:28;;;;;;;97.07;53.03;;;;;;;4.83;100.00;99765.84;10506115;28;20048;-74
2022/11/15 04:46:49;;;;;;;97.07;51.10;;;;;;;4.58;100.00;99766.13;10507667;28;20040;-74
2022/11/15 04:52:09;;;;;;;102.18;52.28;;;;;;;4.66;100.00;99760.84;10504858;28;20135;-74
2022/11/15 04:57:29;;;;;;;95.40;51.10;;;;;;;4.86;100.00;99756.22;10505554;28;20045;-74
2022/11/15 05:08:29;;;;;;;103.70;51.05;;;;;;;4.84;100.00;99746.72;10506174;28;20040;-73
2022/11/15 05:13:50;;;;;;;91.07;49.10;;;;;;;4.71;100.00;99746.00;10507781;28;20502;-73
2022/11/15 05:19:09;;;;;;;90.72;48.55;;;;;;;4.62;100.00;99747.00;10508847;28;20052;-73
2022/11/15 05:24:30;;;;;;;95.95;49.30;;;;;;;4.77;100.00;99743.31;10506695;28;20490;-73
2022/11/15 05:29:50;;;;;;;81.07;46.15;;;;;;;4.84;100.00;99736.31;10507157;28;20048;-73
2022/11/15 05:35:29;;;;;;;87.50;46.88;;;;;;;4.94;100.00;99738.75;10491039;28;20048;-73
2022/11/15 05:40:49;;;;;;;81.65;44.17;;;;;;;4.95;100.00;99744.81;10505504;28;20041;-73
2022/11/15 05:46:10;;;;;;;81.25;44.13;;;;;;;4.87;100.00;99746.66;10505478;28;20041;-74
2022/11/15 05:51:30;;;;;;;80.70;45.08;;;;;;;5.05;100.00;99738.63;10507059;28;20127;-74
2022/11/15 05:56:51;;;;;;;81.97;44.15;;;;;;;5.10;100.00;99733.34;10505212;28;20045;-73
2022/11/15 06:02:12;;;;;;;87.25;45.97;;;;;;;5.17;100.00;99732.34;10508901;28;20060;-73
2022/11/15 06:07:32;;;;;;;88.30;49.17;;;;;;;5.22;100.00;99740.97;10512975;28;20126;-74
2022/11/15 06:13:04;;;;;;;83.38;47.58;;;;;;;5.34;100.00;99738.19;10514783;28;20084;-75
2022/11/15 06:18:25;;;;;;;83.32;44.80;;;;;;;5.39;100.00;99720.72;10499927;28;20072;-74
2022/11/15 06:23:45;;;;;;;83.68;46.05;;;;;;;5.36;100.00;99739.03;10511848;28;20048;-73
2022/11/15 06:29:06;;;;;;;75.40;43.67;;;;;;;5.15;100.00;99752.38;10510390;28;20041;-70
2022/11/15 06:34:26;;;;;;;82.57;45.92;;;;;;;5.05;100.00;99757.72;10507163;28;20049;-69
2022/11/15 06:39:46;;;;;;;81.53;45.40;;;;;;;5.31;100.00;99759.97;10503847;28;20056;-69
2022/11/15 06:45:07;;;;;;;77.35;46.92;;;;;;;5.38;100.00;99754.63;10504110;28;20041;-68
2022/11/15 06:50:27;;;;;;;87.60;46.83;;;;;;;5.53;100.00;99744.84;10504565;28;20567;-73
2022/11/15 06:55:48;;;;;;;80.25;46.67;;;;;;;5.61;100.00;99749.06;10504455;28;20040;-73
2022/11/15 07:01:14;;;;;;;79.38;45.00;;;;;;;5.60;100.00;99755.16;10503440;28;20048;-73
2022/11/15 07:06:34;;;;;;;77.70;46.28;;;;;;;5.59;100.00;99759.53;10504033;28;20422;-73
2022/11/15 07:11:55;;;;;;;87.40;48.17;;;;;;;5.88;100.00;99760.78;10502782;28;20137;-73
2022/11/15 07:17:15;;;;;;;80.25;45.63;;;;;;;5.94;100.00;99761.59;10503460;28;20045;-72
2022/11/15 07:22:35;;;;;;;83.38;45.03;;;;;;;5.93;100.00;99765.09;10504108;28;20060;-72
2022/11/15 07:27:59;;;;;;;76.60;44.50;;;;;;;5.89;100.00;99766.00;10502956;28;20075;-72
2022/11/15 07:33:20;;;;;;;74.82;43.55;;;;;;;5.94;100.00;99771.16;10486687;28;20044;-72
2022/11/15 07:38:40;;;;;;;73.72;42.92;;;;;;;6.17;100.00;99769.00;10503353;28;20095;-72
2022/11/15 07:44:02;;;;;;;68.60;40.25;;;;;;;6.35;100.00;99764.34;10502531;28;20052;-72
2022/11/15 07:49:22;;;;;;;65.85;41.97;;;;;;;6.38;100.00;99766.88;10501682;28;20045;-72
2022/11/15 07:54:43;;;;;;;68.95;40.30;;;;;;;6.49;100.00;99770.13;10502907;28;20557;-72
2022/11/15 08:00:05;;;;;;;69.45;40.80;;;;;;;6.46;100.00;99765.84;10488020;28;20048;-71
2022/11/15 08:05:26;;;;;;;62.88;37.15;;;;;;;6.55;100.00;99762.19;10501900;28;20048;-72
2022/11/15 08:10:46;;;;;;;61.42;37.83;;;;;;;6.50;100.00;99751.81;10501670;28;20505;-71
2022/11/15 08:16:06;;;;;;;62.30;38.67;;;;;;;6.70;100.00;99755.81;10501779;28;20074;-72
2022/11/15 08:21:26;;;;;;;59.88;37.70;;;;;;;6.99;100.00;99750.81;10487018;28;20049;-72
2022/11/15 08:26:47;;;;;;;56.97;37.42;;;;;;;6.86;100.00;99754.56;10500865;28;20044;-71
2022/11/15 08:32:07;;;;;;;61.25;37.10;;;;;;;7.16;100.00;99742.59;10500794;28;20514;-71
2022/11/15 08:37:27;;;;;;;49.08;34.67;;;;;;;7.15;100.00;99737.41;10500656;28;20044;-72
2022/11/15 08:42:48;;;;;;;52.15;36.70;;;;;;;7.36;100.00;99747.38;10500975;28;20052;-72
2022/11/15 08:48:08;;;;;;;52.15;36.08;;;;;;;7.51;100.00;99735.69;10501198;28;20461;-73
2022/11/15 08:53:28;;;;;;;48.42;34.97;;;;;;;7.48;100.00;99730.53;10499408;28;20048;-72
2022/11/15 08:58:48;;;;;;;45.13;32.20;;;;;;;7.67;100.00;99726.59;10502131;28;20049;-72
2022/11/15 09:04:09;;;;;;;37.80;30.30;;;;;;;7.81;100.00;99716.63;10498967;28;20049;-72
2022/11/15 09:09:29;;;;;;;36.20;29.50;;;;;;;7.81;100.00;99715.78;10499794;28;20490;-72
2022/11/15 09:14:49;;;;;;;35.17;28.83;;;;;;;8.30;100.00;99717.09;10498909;28;20052;-72
2022/11/15 09:20:09;;;;;;;42.53;28.52;;;;;;;8.26;100.00;99721.53;10497880;28;20494;-72
2022/11/15 09:25:31;;;;;;;32.35;27.83;;;;;;;8.18;100.00;99720.03;10498490;28;20071;-72
2022/11/15 09:30:55;;;;;;;32.30;27.88;;;;;;;8.40;100.00;99723.81;10500152;28;20088;-72
2022/11/15 09:36:16;;;;;;;36.47;28.83;;;;;;;8.57;100.00;99712.84;10498961;28;20498;-72
2022/11/15 09:42:05;;;;;;;31.80;27.20;;;;;;;8.81;99.28;99704.28;10498660;28;20444;-73
2022/11/15 09:47:44;;;;;;;35.17;28.77;;;;;;;8.58;100.00;99699.69;10483228;28;20410;-72
2022/11/15 09:53:18;;;;;;;30.13;26.20;;;;;;;8.90;99.36;99703.16;10480870;28;20098;-72
2022/11/15 09:59:32;;;;;;;30.33;27.23;;;;;;;8.89;99.51;99703.19;10483034;28;20041;-73
2022/11/15 10:04:37;;;;;;;35.13;28.77;;;;;;;8.82;100.00;99689.44;10290616;28;20054;-72
2022/11/15 10:09:41;;;;;;;34.70;28.17;;;;;;;9.25;97.70;99688.97;10288718;28;20054;-72
2022/11/15 10:14:45;;;;;;;32.65;28.40;;;;;;;9.60;94.09;99679.91;10290271;28;20524;-72
2022/11/15 10:20:29;;;;;;;30.35;26.77;;;;;;;9.55;93.89;99676.59;10289084;28;20135;-72
2022/11/15 10:25:32;;;;;;;31.43;27.67;;;;;;;9.58;93.27;99673.03;10289389;28;20046;-72
2022/11/15 10:30:37;;;;;;;32.60;27.75;;;;;;;9.56;93.87;99659.97;10288274;28;20089;-72
2022/11/15 10:35:39;;;;;;;34.08;26.85;;;;;;;9.76;91.58;99661.03;10289610;28;20042;-72
2022/11/15 10:40:43;;;;;;;28.48;25.55;;;;;;;10.18;89.59;99642.94;10468348;28;20052;-72
2022/11/15 10:45:46;;;;;;;25.75;22.60;;;;;;;11.24;81.75;99644.97;10478348;28;20041;-72
2022/11/15 10:50:50;;;;;;;24.30;22.08;;;;;;;12.46;75.56;99641.50;10484295;28;20490;-73
2022/11/15 10:55:56;;;;;;;22.50;20.80;;;;;;;12.97;72.59;99636.47;10505510;28;20044;-72
2022/11/15 11:01:17;;;;;;;22.40;20.60;;;;;;;13.33;71.07;99633.91;10503695;28;20044;-72
2022/11/15 11:06:18;;;;;;;22.55;20.55;;;;;;;13.45;69.44;99620.06;10503932;28;20394;-73
2022/11/15 11:11:20;;;;;;;22.48;20.58;;;;;;;13.70;67.20;99608.28;10504099;28;20110;-72
2022/11/15 11:17:03;;;;;;;21.02;19.35;;;;;;;13.65;65.77;99610.28;10504875;28;20037;-73
2022/11/15 11:22:16;;;;;;;22.58;20.67;;;;;;;13.91;65.45;99604.53;10490291;28;20114;-73
2022/11/15 11:27:42;;;;;;;22.15;20.38;;;;;;;12.94;68.71;99594.44;10505028;28;20059;-73
2022/11/15 11:33:01;;;;;;;23.55;21.38;;;;;;;12.54;71.33;99585.78;10485480;28;20053;-72
2022/11/15 11:38:15;;;;;;;22.73;20.67;;;;;;;11.75;75.02;99585.81;10504326;28;20040;-73
2022/11/15 11:43:26;;;;;;;21.15;19.52;;;;;;;11.80;74.94;99585.59;10486010;28;20070;-73
2022/11/15 11:48:44;;;;;;;22.65;20.52;;;;;;;11.69;76.28;99577.34;10503601;28;20413;-72
2022/11/15 11:53:56;;;;;;;23.10;20.98;;;;;;;11.85;75.23;99570.47;10503822;28;20457;-72
2022/11/15 11:59:11;;;;;;;22.23;20.52;;;;;;;12.41;72.09;99564.41;10501789;28;20040;-72
2022/11/15 12:04:28;;;;;;;21.60;19.85;;;;;;;12.63;69.80;99557.19;10503545;28;20044;-74
2022/11/15 12:09:43;;;;;;;23.85;21.80;;;;;;;11.76;73.86;99545.38;10501572;28;20047;-73
2022/11/15 12:15:04;;;;;;;24.63;22.42;;;;;;;11.37;75.57;99535.66;10501504;28;20052;-73
2022/11/15 12:20:48;;;;;;;24.55;22.13;;;;;;;10.98;77.74;99527.69;10501439;28;20045;-72
2022/11/15 12:26:09;;;;;;;22.08;20.15;;;;;;;10.80;79.92;99520.53;10491480;28;20053;-72
2022/11/15 12:31:45;;;;;;;41.25;21.88;;;;;;;10.87;80.58;99514.13;10502046;28;20040;-73
2022/11/15 12:36:49;;;;;;;35.63;22.73;;;;;;;10.80;80.57;99494.25;10487338;28;20056;-73
2022/11/15 12:41:54;;;;;;;26.40;21.83;;;;;;;10.51;81.81;99503.34;10487502;28;20052;-73
2022/11/15 12:46:57;;;;;;;22.52;20.65;;;;;;;10.58;80.50;99495.16;10488219;28;20052;-73
2022/11/15 12:51:59;;;;;;;22.65;20.40;;;;;;;10.48;81.89;99490.31;10486725;28;20067;-73
2022/11/15 12:57:06;;;;;;;22.38;20.45;;;;;;;10.52;81.51;99484.88;10504839;28;20040;-73
2022/11/15 13:02:19;;;;;;;22.15;20.33;;;;;;;10.49;81.51;99471.00;10486772;28;20045;-73
2022/11/15 13:07:39;;;;;;;22.98;21.00;;;;;;;10.25;82.78;99475.47;10507317;28;20517;-73
2022/11/15 13:12:44;;;;;;;23.80;21.48;;;;;;;10.11;84.30;99468.94;10486797;28;20068;-73
2022/11/15 13:17:50;;;;;;;24.13;21.58;;;;;;;10.28;82.80;99472.72;10489104;28;20028;-73
2022/11/15 13:23:04;;;;;;;;;;;;;;;10.17;83.58;99467.84;10486557;28;20075;-72
2022/11/15 13:28:15;;;;;;;29.33;23.05;;;;;;;9.85;85.61;99463.84;10507778;28;19921;-73
2022/11/15 13:33:37;;;;;;;23.52;21.33;;;;;;;9.79;85.95;99458.84;10488539;28;20045;-73
2022/11/15 13:38:43;;;;;;;23.17;21.05;;;;;;;9.82;85.80;99450.81;10505248;28;20037;-73
2022/11/15 13:43:44;;;;;;;22.25;20.48;;;;;;;9.89;83.98;99460.19;10504827;28;20450;-73
2022/11/15 13:48:51;;;;;;;24.05;22.05;;;;;;;9.84;83.26;99454.25;10504371;28;20047;-73
2022/11/15 13:53:58;;;;;;;;;;;;;;;9.57;84.99;99450.91;10506277;28;20071;-73
2022/11/15 13:59:23;;;;;;;22.73;20.85;;;;;;;9.48;85.14;99446.84;10486325;28;20404;-72
2022/11/15 14:04:29;;;;;;;23.20;21.20;;;;;;;9.43;84.89;99447.91;10486248;28;20398;-73
2022/11/15 14:09:40;;;;;;;25.17;22.92;;;;;;;9.20;86.07;99439.09;10504871;28;20043;-75
2022/11/15 14:14:45;;;;;;;25.55;23.08;;;;;;;9.23;85.78;99439.00;10507208;28;20098;-73
2022/11/15 14:19:47;;;;;;;24.45;22.05;;;;;;;8.99;87.08;99435.50;10504601;28;20064;-74
2022/11/15 14:25:14;;;;;;;26.35;23.88;;;;;;;8.81;88.08;99442.22;10509361;28;20036;-73
2022/11/15 14:30:16;;;;;;;25.30;23.02;;;;;;;8.72;88.81;99425.94;10511361;28;20062;-73
2022/11/15 14:35:22;;;;;;;24.90;22.50;;;;;;;8.66;89.23;99428.75;10511643;28;20178;-73
2022/11/15 14:40:24;;;;;;;26.23;23.25;;;;;;;8.56;89.33;99433.47;10510249;28;20036;-73
2022/11/15 14:45:27;;;;;;;25.77;23.45;;;;;;;8.47;89.78;99426.75;10509547;28;20439;-73
2022/11/15 14:50:29;;;;;;;24.75;22.35;;;;;;;8.39;90.26;99426.16;10509786;28;20046;-73
2022/11/15 14:55:35;;;;;;;25.33;22.80;;;;;;;8.23;91.25;99425.75;10496280;28;20040;-73
2022/11/15 15:00:39;;;;;;;24.60;22.20;;;;;;;8.12;91.97;99425.25;10527663;28;20036;-73
2022/11/15 15:05:43;;;;;;;26.10;23.42;;;;;;;8.06;92.20;99418.44;10535711;28;20051;-73
2022/11/15 15:10:45;;;;;;;26.45;23.90;;;;;;;7.70;93.82;99417.81;10551198;28;20047;-73
2022/11/15 15:15:48;;;;;;;29.00;23.42;;;;;;;7.70;94.74;99403.84;10511453;28;20532;-73
2022/11/15 15:20:57;;;;;;;27.23;24.50;;;;;;;7.41;96.28;99402.97;10476767;28;20495;-73
2022/11/15 15:25:59;;;;;;;27.02;23.88;;;;;;;7.47;95.96;99399.31;10510192;28;20486;-73
2022/11/15 15:31:01;;;;;;;26.63;23.75;;;;;;;7.29;96.22;99403.31;10513625;28;20039;-73
2022/11/15 15:36:03;;;;;;;26.67;23.95;;;;;;;7.19;97.37;99407.94;10550612;28;20036;-73
2022/11/15 15:41:10;;;;;;;25.40;22.48;;;;;;;6.99;98.26;99408.47;10533732;28;20040;-74
2022/11/15 15:46:14;;;;;;;25.92;23.23;;;;;;;6.81;99.07;99396.78;10550471;28;20443;-73
2022/11/15 15:51:16;;;;;;;27.90;25.23;;;;;;;6.83;100.00;99400.22;10550634;28;20459;-73
2022/11/15 15:56:21;;;;;;;35.28;28.63;;;;;;;6.85;99.22;99397.56;10551525;28;20075;-72
2022/11/15 16:01:22;;;;;;;27.83;24.83;;;;;;;6.65;100.00;99397.25;10551690;28;20040;-73
2022/11/15 16:06:44;;;;;;;27.10;24.20;;;;;;;6.56;100.00;99401.81;10515927;28;20386;-73
2022/11/15 16:11:46;;;;;;;26.70;23.92;;;;;;;6.67;100.00;99395.44;10507331;28;20099;-73
2022/11/15 16:16:48;;;;;;;26.98;24.33;;;;;;;6.38;100.00;99394.44;10506415;28;20111;-73
2022/11/15 16:21:51;;;;;;;27.10;23.65;;;;;;;6.28;100.00;99400.75;10490011;28;20052;-74
2022/11/15 16:26:53;;;;;;;29.25;24.60;;;;;;;6.24;100.00;99399.13;10508395;28;20044;-73
2022/11/15 16:31:55;;;;;;;29.13;24.00;;;;;;;6.07;100.00;99392.56;10506482;28;20047;-72
2022/11/15 16:36:57;;;;;;;25.83;23.40;;;;;;;6.24;100.00;99383.47;10510819;28;20394;-73
2022/11/15 16:41:59;;;;;;;26.45;23.83;;;;;;;5.96;100.00;99384.13;10505289;28;20040;-73
2022/11/15 16:47:01;;;;;;;28.52;24.77;;;;;;;5.94;100.00;99380.72;10530794;28;20115;-74
2022/11/15 16:52:03;;;;;;;25.35;22.70;;;;;;;6.03;100.00;99375.28;10503063;28;20094;-73
2022/11/15 16:57:04;;;;;;;27.45;23.25;;;;;;;5.93;100.00;99368.56;10505783;28;20516;-73
2022/11/15 17:02:13;;;;;;;29.30;25.13;;;;;;;5.77;100.00;99374.97;10528632;28;20048;-73
2022/11/15 17:07:15;;;;;;;28.55;23.83;;;;;;;5.80;100.00;99372.31;10548447;28;20044;-73
2022/11/15 17:12:17;;;;;;;27.10;24.48;;;;;;;5.84;100.00;99368.72;10547180;28;20044;-73
2022/11/15 17:17:20;;;;;;;27.92;23.95;;;;;;;5.81;100.00;99364.44;10547328;28;20072;-73
2022/11/15 17:22:22;;;;;;;27.58;24.48;;;;;;;5.73;100.00;99355.09;10529759;28;20047;-73
2022/11/15 17:27:24;;;;;;;25.85;23.27;;;;;;;5.74;100.00;99354.19;10546364;28;20036;-73
2022/11/15 17:32:25;;;;;;;26.45;23.88;;;;;;;5.64;100.00;99350.09;10546061;28;20048;-73
2022/11/15 17:37:27;;;;;;;28.83;25.75;;;;;;;5.55;100.00;99357.22;10547849;28;20481;-74
2022/11/15 17:42:29;;;;;;;26.70;24.02;;;;;;;5.45;100.00;99358.31;10546054;28;20044;-73
2022/11/15 17:47:30;;;;;;;28.15;25.23;;;;;;;5.56;100.00;99363.28;10545748;28;20115;-73
2022/11/15 17:52:32;;;;;;;25.60;22.92;;;;;;;5.28;100.00;99344.78;10511196;28;20062;-73
2022/11/15 17:57:34;;;;;;;27.02;24.17;;;;;;;5.32;100.00;99336.00;10487352;28;20059;-73
2022/11/15 18:02:36;;;;;;;29.10;24.17;;;;;;;5.27;100.00;99335.25;10493744;28;20056;-73
2022/11/15 18:07:38;;;;;;;32.08;24.88;;;;;;;5.27;100.00;99330.06;10511397;28;20039;-73
2022/11/15 18:12:40;;;;;;;35.53;26.15;;;;;;;5.18;100.00;99320.69;10494902;28;20129;-73
2022/11/15 18:17:41;;;;;;;31.80;25.65;;;;;;;5.29;100.00;99320.44;10492809;28;20056;-73
2022/11/15 18:22:43;;;;;;;31.45;27.00;;;;;;;5.18;100.00;99317.19;10494860;28;20051;-73
2022/11/15 18:27:45;;;;;;;33.25;26.55;;;;;;;5.07;100.00;99317.44;10512242;28;20036;-73
2022/11/15 18:32:47;;;;;;;29.00;24.48;;;;;;;5.10;100.00;99308.72;10493500;28;20041;-73
2022/11/15 18:37:48;;;;;;;27.65;24.65;;;;;;;5.14;100.00;99302.53;10494419;28;20041;-73
2022/11/15 18:42:53;;;;;;;30.60;25.45;;;;;;;5.10;100.00;99295.69;10510228;28;20040;-73
2022/11/15 18:47:55;;;;;;;29.40;24.77;;;;;;;5.10;100.00;99295.69;10509355;28;20032;-73
2022/11/15 18:52:59;;;;;;;26.98;24.15;;;;;;;4.89;100.00;99284.81;10509439;28;20041;-73
2022/11/15 18:58:01;;;;;;;33.22;25.58;;;;;;;4.96;100.00;99286.41;10510796;28;20037;-73
2022/11/15 19:03:03;;;;;;;26.35;23.58;;;;;;;4.85;100.00;99283.16;10490939;28;20131;-73
2022/11/15 19:08:05;;;;;;;27.60;23.63;;;;;;;4.90;100.00;99289.13;10507636;28;20043;-73
2022/11/15 19:13:06;;;;;;;26.83;23.75;;;;;;;4.90;100.00;99291.72;10508660;28;20044;-73
2022/11/15 19:18:08;;;;;;;27.77;24.42;;;;;;;4.94;100.00;99292.53;10508390;28;20115;-73
2022/11/15 19:23:10;;;;;;;29.10;23.73;;;;;;;4.80;100.00;99282.41;10507612;28;20043;-73
2022/11/15 19:28:11;;;;;;;26.45;23.65;;;;;;;4.72;100.00;99274.72;10509317;28;20040;-73
2022/11/15 19:33:13;;;;;;;33.35;24.42;;;;;;;4.64;100.00;99289.66;10507796;28;20037;-73
2022/11/15 19:38:15;;;;;;;27.42;23.33;;;;;;;4.66;100.00;99289.63;10508303;28;20032;-73
2022/11/15 19:43:17;;;;;;;25.92;22.88;;;;;;;4.73;100.00;99292.06;10508375;28;20106;-73
2022/11/15 19:48:18;;;;;;;25.65;23.08;;;;;;;4.60;100.00;99285.38;10507252;28;20078;-73
2022/11/15 19:53:22;;;;;;;25.83;23.08;;;;;;;4.68;100.00;99280.03;10507712;28;20120;-71
2022/11/15 19:58:28;;;;;;;24.95;22.48;;;;;;;4.75;100.00;99268.63;10519140;28;20036;-72
2022/11/15 20:03:31;;;;;;;29.25;23.58;;;;;;;4.54;100.00;99269.91;10521648;28;20123;-72
2022/11/15 20:08:35;;;;;;;25.13;22.08;;;;;;;4.55;100.00;99267.25;10548836;28;20044;-72
2022/11/15 20:13:37;;;;;;;24.83;22.38;;;;;;;4.53;100.00;99268.19;10522148;28;20490;-73
2022/11/15 20:18:39;;;;;;;23.73;21.45;;;;;;;4.52;100.00;99266.47;10488637;28;20050;-72
2022/11/15 20:23:41;;;;;;;24.75;22.13;;;;;;;4.45;100.00;99264.88;10507260;28;20055;-72
2022/11/15 20:28:43;;;;;;;23.48;21.15;;;;;;;4.41;100.00;99271.88;10506700;28;20033;-72
2022/11/15 20:33:45;;;;;;;22.40;20.30;;;;;;;4.33;100.00;99257.28;10506985;28;20037;-72
2022/11/15 20:38:47;;;;;;;22.42;20.52;;;;;;;4.36;100.00;99255.50;10488659;28;20041;-72
2022/11/15 20:43:48;;;;;;;21.73;19.70;;;;;;;4.42;100.00;99250.16;10490322;28;20044;-73
2022/11/15 20:48:50;;;;;;;21.10;19.05;;;;;;;4.40;100.00;99241.53;10507629;28;20051;-73
2022/11/15 20:53:52;;;;;;;20.40;18.52;;;;;;;4.35;100.00;99243.38;10507080;28;20135;-74
2022/11/15 20:58:55;;;;;;;19.17;17.48;;;;;;;4.32;100.00;99238.22;10504007;28;20080;-74
2022/11/15 21:03:57;;;;;;;20.58;18.70;;;;;;;4.24;100.00;99246.16;10504075;28;20475;-73
2022/11/15 21:14:19;;;;;;;21.35;19.55;;;;;;;4.30;100.00;99227.00;10504080;28;20123;-73
2022/11/15 21:19:21;;;;;;;23.05;19.83;;;;;;;4.36;100.00;99218.22;10502865;28;20048;-72
2022/11/15 21:24:33;;;;;;;23.83;21.35;;;;;;;4.18;100.00;99219.44;10486244;28;20047;-73
2022/11/15 21:29:37;;;;;;;22.10;19.85;;;;;;;4.05;100.00;99211.00;10484660;28;20095;-72
2022/11/15 21:34:39;;;;;;;22.88;20.63;;;;;;;3.84;100.00;99212.22;10466980;28;20052;-73
2022/11/15 21:39:41;;;;;;;21.63;19.55;;;;;;;4.31;100.00;99210.50;10484404;28;20033;-73
2022/11/15 21:44:46;;;;;;;20.50;18.80;;;;;;;4.11;100.00;99203.06;10485186;28;20135;-73
2022/11/15 21:49:47;;;;;;;20.85;19.02;;;;;;;4.09;100.00;99197.06;10503207;28;20037;-73
2022/11/15 21:54:49;;;;;;;21.92;19.90;;;;;;;4.05;100.00;99193.66;10484252;28;20052;-73
2022/11/15 22:05:11;;;;;;;22.52;20.17;;;;;;;4.08;100.00;99177.13;10503413;28;20052;-73
2022/11/15 22:10:13;;;;;;;21.13;19.30;;;;;;;4.03;100.00;99182.44;10501871;28;20482;-73
2022/11/15 22:15:18;;;;;;;21.55;19.40;;;;;;;4.11;100.00;99182.25;10502410;28;20055;-73
2022/11/15 22:20:19;;;;;;;20.10;18.27;;;;;;;4.07;100.00;99174.53;10502210;28;20043;-74
2022/11/15 22:25:42;;;;;;;19.65;17.90;;;;;;;4.02;100.00;99162.47;10501626;28;20045;-73
2022/11/15 22:30:45;;;;;;;20.88;18.77;;;;;;;4.10;100.00;99169.28;10501176;28;20044;-73
2022/11/15 22:35:47;;;;;;;19.73;17.92;;;;;;;3.90;100.00;99151.50;10501841;28;20048;-73
2022/11/15 22:40:48;;;;;;;21.05;19.02;;;;;;;3.84;100.00;99142.03;10500323;28;20041;-73
2022/11/15 22:45:50;;;;;;;20.83;18.92;;;;;;;3.83;100.00;99124.72;10486354;28;20094;-73
2022/11/15 22:50:51;;;;;;;19.27;17.67;;;;;;;3.82;100.00;99119.56;10490168;28;20402;-73
2022/11/15 22:55:55;;;;;;;19.63;17.85;;;;;;;3.53;100.00;99115.75;10509480;28;20110;-73
2022/11/15 23:00:59;;;;;;;20.13;18.25;;;;;;;3.63;100.00;99116.44;10508676;28;20044;-74
2022/11/15 23:06:05;;;;;;;18.70;17.10;;;;;;;3.68;100.00;99109.44;10508044;28;20044;-73
2022/11/15 23:16:35;;;;;;;17.70;16.08;;;;;;;3.49;100.00;99103.69;10508162;28;20042;-73
2022/11/15 23:27:06;;;;;;;17.80;16.23;;;;;;;3.65;100.00;99080.91;10506845;28;20132;-73
2022/11/15 23:37:28;;;;;;;15.68;14.55;;;;;;;3.85;100.00;99068.38;10491934;28;20418;-72
2022/11/15 23:42:29;;;;;;;17.33;15.90;;;;;;;4.08;100.00;99056.66;10491259;28;20072;-72
2022/11/15 23:47:31;;;;;;;16.20;14.85;;;;;;;4.26;100.00;99062.31;10488224;28;20041;-72
2022/11/15 23:52:32;;;;;;;16.90;15.48;;;;;;;4.21;100.00;99053.75;10487767;28;20052;-72
2022/11/15 23:57:34;;;;;;;16.20;14.73;;;;;;;4.25;100.00;99059.72;10486886;28;20048;-73
